Weather observations for the past three days for
Erie Municipal Airport
| Date | Time (mdt) | Wind (kph) | Vis. (km) | Weather | Sky Cond. | Temperature (ºC) | Relative Humidity | Wind Chill (°C) | Heat Index (°C) | Pressure | Precipitation (cm) | ||||||
|---|---|---|---|---|---|---|---|---|---|---|---|---|---|---|---|---|---|
| Air | Dwpt | 6 hour | altimeter (cm) | sea level (mb) | 1 hr | 3 hr | 6 hr | ||||||||||
| Max. | Min. | ||||||||||||||||
| 06 | 03:15 | Calm | 6.44 | Light Snow Fog/Mist | BKN004 OVC019 | 0 | 0 | 100% | 76.3 | 0.0 | |||||||
| 06 | 02:55 | N 6 | 3.22 | Light Snow Fog/Mist | BKN004 OVC013 | -0.1 | -0.1 | 100% | 76.3 | 0.0 | |||||||
| 06 | 02:35 | N 6 | 1.21 | Light Snow Fog/Mist | BKN004 OVC008 | 0 | 0 | 100% | 76.3 | 0.0 | 0.03 | ||||||
| 06 | 01:55 | N 7 | 1.61 | Light Snow Fog/Mist | OVC003 | 0.3 | 0.3 | 100% | -2 | 76.33 | 0.0 | ||||||
| 06 | 01:35 | N 6 | 1.61 | Light Snow Fog/Mist | OVC004 | 0.2 | 0.2 | 100% | 76.3 | 0.0 | 0.05 | ||||||
| 06 | 01:15 | N 9 | 3.22 | Light Snow Fog/Mist | OVC003 | 0.2 | 0.2 | 100% | -3 | 76.3 | 0.0 | 0.03 | |||||
| 06 | 00:55 | N 7 | 3.22 | Light Snow Fog/Mist | OVC004 | 0.4 | 0.4 | 100% | -2 | 76.3 | 0.0 | ||||||
| 06 | 00:35 | N 6 | 3.22 | Light Snow Fog/Mist | OVC004 | 0.4 | 0.4 | 100% | 76.3 | 0.0 | 0.05 | ||||||
| 06 | 00:15 | Calm | 2.41 | Light Snow Fog/Mist | OVC005 | 0.3 | 0.3 | 100% | 76.28 | 0.0 | 0.03 | ||||||
| 05 | 23:55 | Calm | 11.27 | Light Snow | FEW003 OVC012 | 0.3 | 0.3 | 100% | 76.28 | 0.0 | |||||||
| 05 | 23:35 | Calm | 6.44 | Light Snow Fog/Mist | OVC004 | 0.2 | 0.2 | 100% | 76.28 | 0.0 | 0.1 | ||||||
| 05 | 23:15 | Calm | 6.44 | Light Snow Fog/Mist | OVC004 | 0.2 | 0.2 | 100% | 76.25 | 0.0 | 0.05 | ||||||
| 05 | 22:55 | Calm | 3.22 | Light Snow Fog/Mist | OVC004 | 0.2 | 0.2 | 100% | 76.25 | 0.0 | |||||||
| 05 | 22:35 | Calm | 1.61 | Light Snow Fog/Mist | SCT004 OVC008 | 0.2 | 0.2 | 100% | 76.25 | 0.0 | 0.1 | ||||||
| 05 | 22:15 | Calm | 2.41 | Light Snow Fog/Mist | OVC008 | 0.2 | 0.2 | 100% | 76.25 | 0.0 | 0.05 | ||||||
| 05 | 21:55 | Calm | 2.82 | Light Snow Fog/Mist | OVC006 | 0.2 | 0.2 | 100% | 76.25 | 0.0 | |||||||
| 05 | 21:35 | S 7 | 2.41 | Light Snow Fog/Mist | OVC006 | 0.2 | 0.2 | 100% | -2 | 76.23 | 0.0 | 0.08 | |||||
| 05 | 21:15 | S 7 | 2.82 | Light Snow Fog/Mist | FEW003 OVC006 | 0.4 | 0.4 | 100% | -2 | 76.23 | 0.0 | 0.05 | |||||
| 05 | 20:55 | S 7 | 2.41 | Light Snow Fog/Mist | SCT004 OVC008 | 0.2 | 0.2 | 100% | -2 | 76.2 | 0.0 | ||||||
| 05 | 20:35 | Calm | 2.41 | Light Snow Fog/Mist | BKN004 OVC009 | 0.4 | 0.4 | 100% | 76.15 | 0.0 | 0.1 | ||||||
| 05 | 20:15 | NW 7 | 2.82 | Light Snow Fog/Mist | BKN004 OVC009 | 0.3 | 0.3 | 100% | -2 | 76.12 | 0.0 | 0.05 | |||||
| 05 | 19:55 | NW 6 | 2.41 | Light Snow Fog/Mist | OVC004 | 0.4 | 0.4 | 100% | 76.12 | 0.0 | 0.03 | ||||||
| 05 | 19:15 | N 7 | 1.61 | Light Snow Fog/Mist | OVC004 | 0.6 | 0.6 | 100% | -1 | 76.07 | 0.0 | 0.05 | |||||
| 05 | 18:55 | N 6 | 1.61 | Light Snow Fog/Mist | OVC004 | 0.5 | 0.5 | 100% | 76.07 | 0.0 | |||||||
| 05 | 18:35 | N 7 | 2.41 | Light Snow Fog/Mist | OVC004 | 0.5 | 0.5 | 100% | -2 | 76.07 | 0.0 | 0.03 | |||||
| 05 | 18:15 | NW 11 | 2.41 | Light Snow Fog/Mist | OVC004 | 0.6 | 0.6 | 100% | -2 | 76.05 | 0.0 | ||||||
| 05 | 17:55 | NW 13 | 2.01 | Light Snow Fog/Mist | OVC003 | 0.5 | 0.5 | 100% | -3 | 76.05 | 0.0 | ||||||
| 05 | 17:35 | N 13 | 0.40 | Heavy Snow Fog | VV005 | 0.3 | 0.3 | 100% | -3 | 76.02 | 0.0 | 0.13 | |||||
| 05 | 17:15 | N 11 | 0.80 | Snow Fog | VV005 | 0.4 | 0.4 | 100% | -3 | 76.05 | 0.0 | 0.08 | |||||
| 05 | 16:55 | NW 17 | 0.40 | Heavy Snow Fog | OVC004 | 0.4 | 0.4 | 100% | -4 | 76.07 | 0.0 | ||||||
| 05 | 16:35 | N 19 | 2.01 | Light Snow Fog/Mist | OVC004 | 0.9 | 0.9 | 100% | -3 | 76.02 | 0.0 | 0.08 | |||||
| 05 | 16:15 | N 13 | 2.82 | Light Snow Fog/Mist | OVC005 | 1.7 | 1.7 | 100% | -2 | 76.02 | 0.0 | 0.05 | |||||
| 05 | 15:55 | N 17 | 6.44 | Light Rain Fog/Mist | OVC005 | 2.4 | 2.4 | 100% | -1 | 75.97 | 0.0 | ||||||
| 05 | 15:35 | N 17 | 6.44 | Fog/Mist | OVC005 | 2.3 | 2.3 | 100% | -1 | 75.97 | 0.0 | ||||||
| 05 | 15:15 | N 15 | 6.44 | Light Rain Fog/Mist | OVC005 | 2.4 | 2.4 | 100% | -1 | 76 | 0.0 | ||||||
| 05 | 14:55 | N 17 | 8.05 | Light Rain Fog/Mist | BKN007 OVC013 | 2.7 | 2.6 | 99% | -1 | 76 | 0.0 | ||||||
| 05 | 14:35 | N 13 | 8.05 | Light Rain Fog/Mist | BKN010 OVC035 | 4 | 3.5 | 97% | 1 | 76 | 0.0 | 0.03 | |||||
| 05 | 14:15 | N 9 | 8.05 | Light Rain Fog/Mist | BKN008 OVC012 | 4 | 3.6 | 97% | 2 | 76.05 | 0.0 | ||||||
| 05 | 13:55 | N 6 | 16.09 | Overcast | OVC011 | 4.3 | 3.8 | 97% | 76.02 | 0.0 | |||||||
| 05 | 13:35 | N 11 | 12.87 | Overcast | OVC010 | 4 | 3.4 | 96% | 2 | 76.05 | 0.0 | ||||||
| 05 | 13:15 | N 11 | 14.48 | Overcast | OVC011 | 3.8 | 3.1 | 95% | 1 | 76.05 | 0.0 | ||||||
| 05 | 12:55 | N 7 | 8.05 | Fog/Mist | OVC010 | 3.5 | 3.2 | 98% | 2 | 76.05 | 0.0 | ||||||
| 05 | 12:35 | N 7 | 8.05 | Light Rain Fog/Mist | OVC007 | 3.6 | 3.2 | 97% | 2 | 76.07 | 0.0 | 0.03 | |||||
| 05 | 12:15 | NW 7 | 9.66 | Fog/Mist | BKN007 OVC011 | 3.5 | 3.3 | 99% | 2 | 76.1 | 0.0 | ||||||
| 05 | 11:55 | N 6 | 9.66 | Fog/Mist | BKN006 OVC010 | 3.1 | 2.9 | 99% | 76.07 | 0.0 | |||||||
| 05 | 11:35 | NW 6 | 4.83 | Light Rain Fog/Mist | OVC007 | 2.9 | 2.6 | 98% | 76.12 | 0.0 | |||||||
| 05 | 11:15 | NW 11 | 4.83 | Unknown Precip Fog/Mist | OVC006 | 3 | 2.8 | 99% | 0 | 76.15 | 0.0 | ||||||
| 05 | 10:55 | NW 6 | 4.83 | Fog/Mist | BKN006 OVC041 | 2.6 | 2.6 | 100% | 76.12 | 0.0 | |||||||
| 05 | 10:35 | NW 6 | 3.22 | Unknown Precip Fog/Mist | OVC006 | 2.4 | 2.4 | 100% | 76.15 | 0.0 | |||||||
| 05 | 10:15 | NW 7 | 4.02 | Unknown Precip Fog/Mist | OVC005 | 2.3 | 2.3 | 100% | 0 | 76.15 | 0.0 | ||||||
| 05 | 09:35 | NW 9 | 6.44 | Fog/Mist | OVC005 | 1.9 | 1.9 | 100% | -1 | 76.17 | 0.0 | ||||||
| 05 | 09:15 | NW 9 | 8.05 | Fog/Mist | OVC005 | 1.8 | 1.8 | 100% | -1 | 76.17 | 0.0 | ||||||
| 05 | 08:55 | NW 6 | 16.09 | Overcast | OVC005 | 1.5 | 1.5 | 100% | 76.17 | 0.0 | |||||||
| 05 | 08:35 | NW 6 | 16.09 | Overcast | OVC004 | 1.4 | 1.4 | 100% | 76.17 | 0.0 | 0.03 | ||||||
| 05 | 08:15 | NW 7 | 8.05 | Light Snow Fog/Mist | OVC004 | 1.2 | 1.2 | 100% | -1 | 76.17 | 0.0 | 0.03 | |||||
| 05 | 07:55 | NW 6 | 6.44 | Light Snow Fog/Mist | OVC004 | 1 | 1 | 100% | 76.17 | 0.0 | |||||||
| 05 | 07:35 | NW 6 | 2.01 | Light Snow Fog/Mist | OVC004 | 0.6 | 0.6 | 100% | 76.17 | 0.0 | 0.08 | ||||||
| 05 | 07:15 | NW 6 | 2.01 | Light Snow Fog/Mist | OVC004 | 0.7 | 0.7 | 100% | 76.15 | 0.0 | 0.05 | ||||||
| 05 | 06:55 | NW 7 | 4.02 | Light Snow Fog/Mist | OVC004 | 0.9 | 0.9 | 100% | -1 | 76.12 | 0.0 | ||||||
| 05 | 06:35 | N 7 | 2.01 | Light Snow Fog/Mist | OVC005 | 1.1 | 1.1 | 100% | -1 | 76.1 | 0.0 | 0.08 | |||||
| 05 | 06:15 | N 11 | 4.83 | Light Snow Fog/Mist | OVC005 | 1.3 | 1.3 | 100% | -2 | 76.1 | 0.0 | 0.05 | |||||
| 05 | 05:55 | N 15 | 8.05 | Unknown Precip Fog/Mist | OVC006 | 2 | 2 | 100% | -2 | 76.07 | 0.0 | ||||||
| 05 | 05:35 | N 15 | 9.66 | Fog/Mist | OVC006 | 2.2 | 2.2 | 100% | -1 | 76.07 | 0.0 | 0.03 | |||||
| 05 | 05:15 | N 17 | 9.66 | Fog/Mist | OVC006 | 2.3 | 2.3 | 100% | -1 | 76.07 | 0.0 | 0.03 | |||||
| 05 | 04:55 | N 17 G 30 | 9.66 | Light Rain Fog/Mist | BKN006 BKN011 OVC018 | 2.8 | 2.7 | 99% | -1 | 76.02 | 0.0 | ||||||
| 05 | 04:35 | N 19 G 31 | 6.44 | Light Rain Fog/Mist | BKN013 OVC020 | 4.4 | 3.6 | 95% | 1 | 76.02 | 0.0 | 0.15 | |||||
| 05 | 04:15 | NE 17 | 8.05 | Light Rain Fog/Mist | BKN012 OVC018 | 5.1 | 4.5 | 96% | 2 | 76 | 0.0 | 0.1 | |||||
| 05 | 03:55 | N 13 | 9.66 | Light Rain Fog/Mist | OVC011 | 5.4 | 4.9 | 97% | 3 | 75.97 | 0.0 | 0.03 | |||||
| 05 | 03:35 | N 15 | 14.48 | Light Rain | OVC010 | 5.4 | 5 | 97% | 3 | 75.95 | 0.0 | ||||||
| 05 | 03:15 | N 15 | 12.87 | Light Rain | OVC008 | 5.4 | 5.4 | 100% | 3 | 75.92 | 0.0 | ||||||
| 05 | 02:55 | N 17 | 9.66 | Light Rain Fog/Mist | OVC005 | 5.7 | 5.7 | 100% | 3 | 75.92 | 0.0 | ||||||
| 05 | 02:35 | N 15 | 6.44 | Light Rain Fog/Mist | OVC005 | 6.1 | 6.1 | 100% | 3 | 75.92 | 0.0 | 0.08 | |||||
| 05 | 02:15 | N 19 | 6.44 | Light Rain Fog/Mist | BKN005 BKN014 OVC022 | 6.2 | 6.2 | 100% | 3 | 75.92 | 0.0 | 0.03 | |||||
| 05 | 01:55 | N 19 | 8.05 | Light Rain Fog/Mist | FEW008 SCT014 OVC022 | 6.6 | 6.2 | 97% | 4 | 75.92 | 0.0 | ||||||
| 05 | 01:35 | N 17 | 12.87 | Light Rain | SCT013 BKN025 OVC033 | 8.1 | 7.3 | 95% | 6 | 75.92 | 0.0 | ||||||
| 05 | 01:15 | N 6 | 16.09 | Overcast | BKN033 OVC045 | 9.6 | 8.7 | 94% | 75.92 | 0.0 | |||||||
| 05 | 00:55 | Calm | 16.09 | Overcast | OVC045 | 9.4 | 8.2 | 92% | 75.87 | 0.0 | |||||||
| 05 | 00:35 | Calm | 16.09 | Overcast | OVC046 | 9.3 | 8.3 | 94% | 75.87 | 0.0 | |||||||
| 05 | 00:15 | S 6 | 16.09 | Overcast | OVC045 | 9.3 | 8.1 | 92% | 75.87 | 0.0 | |||||||
| 04 | 23:55 | S 7 | 16.09 | Overcast | OVC050 | 9.2 | 8.1 | 93% | 8 | 75.9 | 0.0 | ||||||
| 04 | 23:35 | Calm | 16.09 | Mostly Cloudy | SCT050 BKN070 BKN140 | 9 | 8.1 | 94% | 75.87 | 0.0 | |||||||
| 04 | 23:15 | Calm | 16.09 | Mostly Cloudy | BKN070 | 9.2 | 8 | 92% | 75.87 | 0.0 | |||||||
| 04 | 22:55 | S 7 | 16.09 | Mostly Cloudy | FEW048 BKN070 | 9.2 | 8 | 92% | 8 | 75.84 | 0.0 | ||||||
| 04 | 22:35 | S 13 | 16.09 | Overcast | FEW048 OVC070 | 9.4 | 8.3 | 93% | 8 | 75.87 | 0.0 | 0.03 | |||||
| 04 | 22:15 | S 9 | 14.48 | Light Rain | FEW040 OVC070 | 9.3 | 8.8 | 97% | 8 | 75.9 | 0.0 | 0.03 | |||||
| 04 | 21:55 | S 7 | 11.27 | Light Rain | FEW047 OVC060 | 9.4 | 9 | 97% | 9 | 75.87 | 0.0 | 0.03 | |||||
| 04 | 21:35 | W 15 | 9.66 | Light Rain Fog/Mist | OVC055 | 9.5 | 8.9 | 96% | 8 | 75.9 | 0.0 | 0.25 | |||||
| 04 | 21:15 | W 17 | 8.05 | Light Rain Fog/Mist | OVC049 | 9.7 | 9 | 95% | 8 | 75.87 | 0.0 | 0.13 | |||||
| 04 | 20:55 | NW 13 | 6.44 | Light Rain Fog/Mist | SCT047 OVC055 | 9.9 | 8.2 | 89% | 8 | 75.84 | 0.0 | 0.03 | |||||
| 04 | 20:35 | NW 7 | 12.87 | Light Rain | OVC060 | 10.8 | 7.5 | 80% | 75.82 | 0.0 | |||||||
| 04 | 20:15 | NW 7 | 14.48 | Overcast | OVC060 | 11 | 7.3 | 78% | 75.79 | 0.0 | |||||||
| 04 | 19:55 | NW 11 | 12.87 | Overcast | OVC060 | 11.5 | 6.9 | 74% | 75.79 | 0.0 | |||||||
| 04 | 19:35 | N 15 | 9.66 | Light Rain | OVC060 | 11.8 | 6.4 | 70% | 75.77 | 0.0 | |||||||
| 04 | 19:15 | N 20 | 9.66 | Light Rain | BKN060 OVC075 | 13.6 | 6.5 | 62% | 75.77 | 0.0 | |||||||
| 04 | 18:55 | N 9 | 14.48 | Overcast | FEW043 OVC075 | 14.5 | 4.4 | 51% | 75.74 | 0.0 | |||||||
| 04 | 18:35 | N 9 | 14.48 | Overcast | BKN080 OVC100 | 14.7 | 3.7 | 48% | 75.72 | 0.0 | |||||||
| 04 | 18:15 | N 11 | 14.48 | Mostly Cloudy | SCT080 BKN100 | 14.9 | 3.6 | 47% | 75.72 | 0.0 | |||||||
| 04 | 17:55 | N 19 | 14.48 | Mostly Cloudy | BKN100 BKN110 | 15 | 4.1 | 48% | 75.72 | 0.0 | |||||||
| 04 | 17:35 | N 11 | 14.48 | Mostly Cloudy | SCT110 BKN130 | 16.1 | 1.9 | 39% | 75.69 | 0.0 | |||||||
| 04 | 17:15 | N 9 | 11.27 | Light Rain | FEW033 SCT060 BKN130 | 16.3 | 1.3 | 36% | 75.69 | 0.0 | |||||||
| 04 | 16:55 | W 20 | 12.87 | Light Rain | FEW030 SCT044 BKN060 BKN080 OVC090 | 16.9 | 1.7 | 36% | 75.69 | 0.0 | |||||||
| 04 | 16:35 | W 11 | 14.48 | Mostly Cloudy | BKN090 BKN110 BKN170 | 17.1 | 0.2 | 32% | 75.67 | 0.0 | |||||||
| 04 | 16:15 | N 13 | 16.09 | Mostly Cloudy | SCT170 BKN190 | 17.3 | 0.7 | 33% | 75.64 | 0.0 | |||||||
| 04 | 15:55 | N 19 G 33 | 16.09 | A Few Clouds | FEW130 | 17.7 | 1.2 | 33% | 75.62 | 0.0 | |||||||
| 04 | 15:35 | N 26 G 41 | 14.48 | A Few Clouds | FEW095 | 18.6 | 0.5 | 30% | 75.62 | 0.0 | |||||||
| 04 | 15:15 | N 19 G 39 | 16.09 | Mostly Cloudy | BKN095 | 19 | 0.9 | 30% | 75.64 | 0.0 | |||||||
| 04 | 14:55 | N 20 | 14.48 | Overcast | FEW075 OVC095 | 18.7 | -1.7 | 25% | 75.67 | 0.0 | |||||||
| 04 | 14:35 | N 13 | 16.09 | Overcast | BKN075 OVC100 | 20.7 | -2.7 | 21% | 75.62 | 0.0 | |||||||
| 04 | 14:15 | SW 15 | 16.09 | Overcast | SCT080 OVC100 | 19.9 | -1.8 | 23% | 75.59 | 0.0 | |||||||
| 04 | 13:55 | W 19 G 37 | 16.09 | Overcast | BKN110 BKN130 OVC160 | 20.4 | -2.8 | 21% | 75.59 | 0.0 | |||||||
| 04 | 13:35 | NW 15 | 14.48 | Mostly Cloudy | SCT160 BKN340 | 22.8 | -7.7 | 12% | 75.57 | 0.0 | |||||||
| 04 | 13:15 | Vrbl 7 | 16.09 | Mostly Cloudy | BKN160 BKN370 | 23.4 | -5.8 | 14% | 75.57 | 0.0 | |||||||
| 04 | 12:55 | W 20 | 16.09 | Partly Cloudy | SCT160 | 22.7 | -5.7 | 15% | 75.57 | 0.0 | |||||||
| 04 | 12:35 | NW 24 | 14.48 | A Few Clouds | FEW210 | 22.9 | -5.1 | 15% | 75.59 | 0.0 | |||||||
| 04 | 12:15 | NW 24 | 14.48 | A Few Clouds | FEW150 | 24 | -4.3 | 15% | 24 | 75.59 | 0.0 | ||||||
| 04 | 11:55 | NW 28 | 16.09 | A Few Clouds | FEW300 | 22.5 | -2.9 | 18% | 75.62 | 0.0 | |||||||
| 04 | 11:35 | W 33 G 46 | 16.09 | Fair and Breezy | CLR | 21.9 | -2.9 | 19% | 75.67 | 0.0 | |||||||
| 04 | 11:15 | W 33 | 16.09 | A Few Clouds and Breezy | FEW330 | 21.6 | -2.5 | 20% | 75.67 | 0.0 | |||||||
| 04 | 10:55 | W 26 | 16.09 | Partly Cloudy | SCT120 SCT330 | 21 | -2.7 | 20% | 75.69 | 0.0 | |||||||
| 04 | 10:35 | W 20 | 16.09 | Mostly Cloudy | BKN120 | 19.5 | -2.4 | 23% | 75.69 | 0.0 | |||||||
| 04 | 10:15 | W 19 | 16.09 | Partly Cloudy | SCT160 | 19 | -2.6 | 23% | 75.69 | 0.0 | |||||||
| 04 | 09:55 | W 13 | 16.09 | Mostly Cloudy | BKN160 | 18.6 | -3 | 23% | 75.69 | 0.0 | |||||||
| 04 | 09:35 | W 11 | 16.09 | Mostly Cloudy | BKN160 | 18.1 | -3.4 | 23% | 75.72 | 0.0 | |||||||
| 04 | 09:15 | W 13 | 16.09 | Mostly Cloudy | BKN160 | 17.6 | -3.3 | 24% | 75.72 | 0.0 | |||||||
| 04 | 08:55 | W 15 | 16.09 | Mostly Cloudy | BKN170 | 17.4 | -3.9 | 23% | 75.72 | 0.0 | |||||||
| 04 | 08:35 | W 13 | 16.09 | Partly Cloudy | SCT180 | 16.8 | -5.1 | 22% | 75.72 | 0.0 | |||||||
| 04 | 08:15 | W 9 | 12.87 | Fair | CLR | 13.3 | -3.1 | 32% | 75.72 | 0.0 | |||||||
| 04 | 07:55 | SW 6 | 12.87 | Fair | CLR | 10.5 | -2.5 | 40% | 75.74 | 0.0 | |||||||
| 04 | 07:35 | Calm | 14.48 | A Few Clouds | FEW200 | 8.9 | -2.7 | 44% | 75.74 | 0.0 | |||||||
| 04 | 07:15 | Calm | 14.48 | Fair | CLR | 8.2 | -2.5 | 47% | 75.74 | 0.0 | |||||||
| 04 | 06:55 | S 7 | 14.48 | Fair | CLR | 7 | -3.4 | 48% | 6 | 75.72 | 0.0 | ||||||
| 04 | 06:35 | Calm | 14.48 | Fair | CLR | 5.9 | -3.3 | 52% | 75.72 | 0.0 | |||||||
| 04 | 05:55 | Calm | 16.09 | Fair | CLR | 5.5 | -3.5 | 53% | 75.69 | 0.0 | |||||||
| 04 | 05:35 | S 6 | 16.09 | Fair | CLR | 4.2 | -3.5 | 58% | 75.72 | 0.0 | |||||||
| 04 | 05:15 | S 6 | 16.09 | Fair | CLR | 5.5 | -3.4 | 53% | 75.72 | 0.0 | |||||||
| 04 | 04:55 | S 6 | 16.09 | Fair | CLR | 6.1 | -4.1 | 48% | 75.74 | 0.0 | |||||||
| 04 | 04:35 | S 7 | 16.09 | Fair | CLR | 4 | -3.5 | 58% | 2 | 75.74 | 0.0 | ||||||
| 04 | 04:15 | Calm | 16.09 | Fair | CLR | 3.1 | -4 | 60% | 75.74 | 0.0 | |||||||
| 04 | 03:55 | S 7 | 16.09 | Fair | CLR | 6 | -3.9 | 49% | 5 | 75.74 | 0.0 | ||||||
| 04 | 03:35 | S 7 | 16.09 | Fair | CLR | 5.1 | -3.3 | 55% | 4 | 75.77 | 0.0 | ||||||
| 04 | 03:15 | Calm | 16.09 | Fair | CLR | 3.4 | -3.6 | 61% | 75.77 | 0.0 | |||||||
| 04 | 02:55 | SW 6 | 16.09 | Fair | CLR | 3.6 | -3.7 | 59% | 75.77 | 0.0 | |||||||
| 04 | 02:35 | Calm | 16.09 | Fair | CLR | 3.3 | -4.6 | 57% | 75.79 | 0.0 | |||||||
| 04 | 02:15 | Calm | 16.09 | Fair | CLR | 5.6 | -3 | 54% | 75.79 | 0.0 | |||||||
| 04 | 01:55 | Calm | 16.09 | Fair | CLR | 7.7 | -3.5 | 45% | 75.79 | 0.0 | |||||||
| 04 | 01:35 | Calm | 16.09 | Fair | CLR | 6.6 | -4.4 | 46% | 75.82 | 0.0 | |||||||
| 04 | 01:15 | Calm | 16.09 | Fair | CLR | 7.7 | -3.7 | 45% | 75.84 | 0.0 | |||||||
| 04 | 00:55 | Calm | 16.09 | Fair | CLR | 6.1 | -4.7 | 46% | 75.84 | 0.0 | |||||||
| 04 | 00:35 | Calm | 16.09 | Fair | CLR | 8.6 | -4.1 | 41% | 75.84 | 0.0 | |||||||
| 04 | 00:15 | Calm | 16.09 | Fair | CLR | 11.8 | -3.4 | 35% | 75.84 | 0.0 | |||||||
| 03 | 23:55 | NW 13 | 16.09 | Fair | CLR | 12.4 | -3.8 | 32% | 75.84 | 0.0 | |||||||
| 03 | 23:35 | NW 11 | 16.09 | Fair | CLR | 14.1 | -4.8 | 27% | 75.82 | 0.0 | |||||||
| 03 | 23:15 | NW 17 | 16.09 | A Few Clouds | FEW180 | 15.3 | -4.9 | 25% | 75.82 | 0.0 | |||||||
| 03 | 22:55 | NW 15 | 16.09 | A Few Clouds | FEW180 | 15.9 | -4.5 | 24% | 75.82 | 0.0 | |||||||
| 03 | 22:35 | W 9 | 16.09 | A Few Clouds | FEW180 | 14.4 | -4.7 | 27% | 75.79 | 0.0 | |||||||
| 03 | 22:15 | Calm | 16.09 | Partly Cloudy | SCT190 | 15 | -4.8 | 25% | 75.82 | 0.0 | |||||||
| 03 | 21:55 | S 11 | 16.09 | Overcast | FEW150 OVC190 | 16.1 | -4.5 | 24% | 75.82 | 0.0 | |||||||
| 03 | 21:35 | S 7 | 14.48 | Mostly Cloudy | SCT150 BKN190 | 16.1 | -4.8 | 24% | 75.84 | 0.0 | |||||||
| 03 | 21:15 | SW 13 | 16.09 | Mostly Cloudy | BKN190 | 18.5 | -4.9 | 20% | 75.84 | 0.0 | |||||||
| 03 | 20:55 | SW 15 | 16.09 | Mostly Cloudy | FEW140 BKN180 | 18.8 | -5.3 | 19% | 75.82 | 0.0 | |||||||
| 03 | 20:35 | SW 11 | 14.48 | Mostly Cloudy | BKN140 | 17.8 | -5 | 21% | 75.82 | 0.0 | |||||||
| 03 | 20:15 | SW 11 | 16.09 | Mostly Cloudy | BKN140 | 18.6 | -4.9 | 20% | 75.82 | 0.0 | |||||||
| 03 | 19:55 | SW 9 | 12.87 | Overcast | FEW110 OVC140 | 19 | -5.2 | 19% | 75.79 | 0.0 | |||||||
| 03 | 19:35 | W 11 | 14.48 | Overcast | BKN100 OVC130 | 20 | -5.2 | 18% | 75.79 | 0.0 | |||||||
| 03 | 19:15 | W 15 | 14.48 | Overcast | BKN100 OVC130 | 20.2 | -5.1 | 18% | 75.79 | 0.0 | |||||||
| 03 | 18:55 | W 15 G 33 | 16.09 | Mostly Cloudy | BKN100 BKN120 | 20.4 | -5.6 | 17% | 75.82 | 0.0 | |||||||
| 03 | 18:35 | W 9 | 16.09 | Overcast | OVC120 | 20.1 | -4.7 | 18% | 75.87 | 0.0 | |||||||
| 03 | 18:15 | Calm | 16.09 | Overcast | FEW055 BKN095 OVC120 | 20.4 | -5 | 18% | 75.84 | 0.0 | |||||||
| 03 | 17:55 | NW 26 G 41 | 16.09 | Overcast | FEW065 OVC110 | 20.8 | -5.5 | 17% | 75.92 | 0.0 | |||||||
| 03 | 17:35 | W 13 | 16.09 | Overcast | BKN120 OVC140 | 21.3 | -4.9 | 17% | 75.84 | 0.0 | |||||||
| 03 | 17:15 | SW 19 G 30 | 16.09 | Mostly Cloudy | FEW100 BKN130 BKN160 | 21.4 | -4.8 | 17% | 75.84 | 0.0 | |||||||
| 03 | 16:55 | NW 6 | 14.48 | Overcast | SCT100 BKN120 OVC140 | 21.4 | -6.3 | 15% | 75.84 | 0.0 | |||||||
| 03 | 16:35 | Vrbl 6 | 16.09 | Mostly Cloudy | FEW080 BKN120 | 21.7 | -7.4 | 14% | 75.84 | 0.0 | |||||||
| 03 | 16:15 | E 20 G 78 | 11.27 | Mostly Cloudy | FEW034 SCT080 SCT100 BKN120 | 20.9 | -6.5 | 15% | 75.87 | 0.0 | |||||||
| 03 | 15:55 | SW 19 | 16.09 | Mostly Cloudy | BKN120 | 22.8 | -8.1 | 12% | 75.87 | 0.0 | |||||||
| 03 | 15:35 | SW 20 | 16.09 | Mostly Cloudy | BKN120 | 23.9 | -7.9 | 11% | 24 | 75.87 | 0.0 | ||||||
| 03 | 15:15 | W 19 G 33 | 16.09 | Partly Cloudy | FEW130 SCT320 SCT370 | 23.5 | -9.9 | 10% | 75.9 | 0.0 | |||||||
| 03 | 14:55 | Vrbl 9 | 16.09 | A Few Clouds | FEW150 | 23.7 | -9 | 11% | 75.9 | 0.0 | |||||||
| 03 | 14:35 | NW 17 | 16.09 | Partly Cloudy | FEW220 SCT380 | 24.1 | -8.9 | 10% | 24 | 75.92 | 0.0 | ||||||
| 03 | 14:15 | NW 20 G 28 | 16.09 | Partly Cloudy | SCT230 | 23.3 | -8.9 | 11% | 75.95 | 0.0 | |||||||
| 03 | 13:55 | NW 22 | 16.09 | Partly Cloudy | SCT220 SCT240 SCT370 | 23.1 | -9 | 11% | 75.97 | 0.0 | |||||||
| 03 | 13:35 | NW 24 G 31 | 16.09 | A Few Clouds | FEW220 | 23.4 | -8.7 | 11% | 76 | 0.0 | |||||||
| 03 | 13:15 | NW 26 | 16.09 | A Few Clouds | FEW220 | 23.4 | -8.8 | 11% | 76.02 | 0.0 | |||||||
| 03 | 12:55 | NW 19 G 31 | 16.09 | Partly Cloudy | SCT230 | 23.8 | -8.7 | 11% | 76.05 | 0.0 | |||||||
| 03 | 12:35 | NW 15 G 33 | 16.09 | Mostly Cloudy | BKN230 BKN300 | 22.7 | -9.3 | 11% | 76.07 | 0.0 | |||||||
| 03 | 12:15 | NW 24 G 43 | 16.09 | Mostly Cloudy | SCT230 SCT300 BKN330 BKN350 | 22.9 | -9.4 | 11% | 76.1 | 0.0 | |||||||
| 03 | 11:55 | NW 26 | 16.09 | Partly Cloudy | FEW220 SCT290 SCT320 | 22.8 | -9.5 | 11% | 76.12 | 0.0 | |||||||
| 03 | 11:35 | W 26 | 16.09 | Mostly Cloudy | BKN230 | 21.6 | -10.1 | 11% | 76.15 | 0.0 | |||||||
| 03 | 11:15 | W 30 | 16.09 | Partly Cloudy | SCT230 | 21.2 | -10.4 | 11% | 76.17 | 0.0 | |||||||
| 03 | 10:55 | NW 24 G 33 | 16.09 | Mostly Cloudy | SCT230 SCT270 BKN340 | 21.7 | -9.6 | 11% | 76.17 | 0.0 | |||||||
| 03 | 10:35 | W 19 G 41 | 16.09 | A Few Clouds | FEW270 | 21.3 | -9.1 | 12% | 76.17 | 0.0 | |||||||
| 03 | 10:15 | W 22 | 16.09 | A Few Clouds | FEW210 | 21 | -8.3 | 13% | 76.2 | 0.0 | |||||||
| 03 | 09:55 | W 24 | 16.09 | Partly Cloudy | SCT240 | 21 | -7.8 | 14% | 76.2 | 0.0 | |||||||
| 03 | 09:35 | W 24 G 33 | 16.09 | A Few Clouds | FEW240 | 20.1 | -7.4 | 15% | 76.2 | 0.0 | |||||||
| 03 | 09:15 | W 19 | 16.09 | A Few Clouds | FEW380 | 19.1 | -7.4 | 16% | 76.2 | 0.0 | |||||||
| 03 | 08:55 | W 20 | 16.09 | A Few Clouds | FEW260 | 18.8 | -7.6 | 16% | 76.2 | 0.0 | |||||||
| 03 | 08:35 | W 17 | 16.09 | Partly Cloudy | SCT250 | 18 | -7.4 | 17% | 76.23 | 0.0 | |||||||
| 03 | 08:15 | W 17 | 16.09 | Mostly Cloudy | BKN250 | 17 | -7.5 | 18% | 76.23 | 0.0 | |||||||
| 03 | 07:55 | W 17 | 16.09 | Overcast | OVC250 | 17.5 | -7.8 | 17% | 76.23 | 0.0 | |||||||
| 03 | 07:35 | W 9 | 16.09 | Overcast | OVC250 | 15 | -6.5 | 22% | 76.23 | 0.0 | |||||||
| 03 | 07:15 | SW 11 | 16.09 | Overcast | OVC240 | 14.7 | -6.8 | 22% | 76.23 | 0.0 | |||||||
| 03 | 06:55 | S 7 | 16.09 | Overcast | OVC250 | 12.6 | -5 | 29% | 76.23 | 0.0 | |||||||
| 03 | 06:35 | SE 6 | 16.09 | Mostly Cloudy | BKN250 | 11.2 | -5.5 | 31% | 76.2 | 0.0 | |||||||
| 03 | 06:15 | S 9 | 16.09 | A Few Clouds | FEW240 | 7.8 | -5.5 | 39% | 6 | 76.17 | 0.0 | ||||||
| 03 | 05:55 | SW 7 | 16.09 | Overcast | OVC250 | 5.9 | -3.5 | 51% | 5 | 76.17 | 0.0 | ||||||
| 03 | 05:35 | Calm | 16.09 | Overcast | OVC250 | 5.5 | -4.2 | 50% | 76.2 | 0.0 | |||||||
| 03 | 05:15 | S 6 | 16.09 | Partly Cloudy | SCT260 | 5.1 | -5 | 48% | 76.2 | 0.0 | |||||||
| 03 | 04:35 | S 9 | 16.09 | Fair | CLR | 5.1 | -6.2 | 44% | 3 | 76.2 | 0.0 | ||||||
| 03 | 04:15 | Calm | 16.09 | Fair | CLR | 4.4 | -6.3 | 46% | 76.2 | 0.0 | |||||||
| 03 | 03:55 | SW 7 | 16.09 | Fair | CLR | 4.5 | -5.8 | 48% | 3 | 76.2 | 0.0 | ||||||
| Date | Time (mdt) | Wind (kph) | Vis. (km) | Weather | Sky Cond. | Air | Dwpt | Max. | Min. | Relative Humidity | Wind Chill (°C) | Heat Index (°C) | altimeter (cm) | sea level (mb) | 1 hr | 3 hr | 6 hr |
| 6 hour | |||||||||||||||||
| Temperature (ºC) | Pressure | Precipitation (cm) | |||||||||||||||